Time;durP1;ratioP1;P1;durP2;ratioP2;P2;SDS_P1;SDS_P2;PMS_P1;PMS_P2;Temp;Humidity;BMP_temperature;BMP_pressure;BME280_temperature;BME280_humidity;BME280_pressure;Samples;Min_cycle;Max_cycle;Signal;HPM_P1;HPM_P2
2022/06/07 00:02:13;;;;;;;9.17;5.90;;;;;;;12.12;100.00;101243.19;4975422;28;20212;-70
2022/06/07 00:04:39;;;;;;;10.00;5.60;;;;;;;12.03;100.00;101244.34;4976512;28;21047;-70
2022/06/07 00:07:06;;;;;;;10.67;6.77;;;;;;;12.16;100.00;101240.94;4978035;28;20998;-70
2022/06/07 00:09:32;;;;;;;7.10;5.53;;;;;;;11.86;100.00;101203.56;4977781;28;20445;-69
2022/06/07 00:11:58;;;;;;;9.20;6.50;;;;;;;11.93;100.00;101220.53;4974099;28;20473;-69
2022/06/07 00:14:24;;;;;;;11.90;6.60;;;;;;;12.10;100.00;101234.47;4976548;28;20469;-69
2022/06/07 00:16:51;;;;;;;12.13;6.17;;;;;;;12.10;100.00;101212.97;4977505;28;20192;-69
2022/06/07 00:19:16;;;;;;;15.60;6.50;;;;;;;12.12;100.00;101227.06;4975514;28;20441;-69
2022/06/07 00:21:42;;;;;;;15.23;6.73;;;;;;;12.11;100.00;101211.09;4978175;28;20444;-70
2022/06/07 00:24:08;;;;;;;14.27;6.50;;;;;;;11.75;100.00;101153.84;4978184;28;20723;-69
2022/06/07 00:26:37;;;;;;;10.20;5.70;;;;;;;12.10;100.00;101207.59;4980008;28;20201;-69
2022/06/07 00:29:02;;;;;;;9.07;5.80;;;;;;;11.18;100.00;101055.56;4976278;28;20194;-69
2022/06/07 00:31:28;;;;;;;14.57;6.60;;;;;;;11.61;100.00;101090.31;4976779;28;20467;-70
2022/06/07 00:33:54;;;;;;;10.07;5.77;;;;;;;12.14;100.00;101200.78;4976030;28;20268;-70
2022/06/07 00:36:20;;;;;;;13.10;6.43;;;;;;;12.23;100.00;101195.22;4977675;28;20195;-69
2022/06/07 00:38:46;;;;;;;9.43;5.83;;;;;;;12.05;100.00;101185.03;4973653;28;20495;-70
2022/06/07 00:41:11;;;;;;;10.43;6.13;;;;;;;11.87;100.00;101148.75;4975519;28;20444;-69
2022/06/07 00:43:38;;;;;;;8.47;5.73;;;;;;;12.15;100.00;101180.09;4977703;28;20182;-70
2022/06/07 00:46:09;;;;;;;9.13;6.30;;;;;;;12.04;100.00;101184.19;4977781;28;20578;-70
2022/06/07 00:48:36;;;;;;;12.00;6.10;;;;;;;11.87;100.00;101143.38;4991691;28;20525;-69
2022/06/07 00:51:06;;;;;;;8.83;5.73;;;;;;;12.15;100.00;101154.06;4977146;28;20473;-70
2022/06/07 00:53:33;;;;;;;9.83;5.80;;;;;;;12.15;100.00;101145.13;4978018;28;20884;-70
2022/06/07 00:55:59;;;;;;;9.97;6.00;;;;;;;12.21;100.00;101172.06;4976829;28;20505;-71
2022/06/07 00:58:28;;;;;;;8.43;5.33;;;;;;;11.99;100.00;101162.44;4988247;28;20449;-69
2022/06/07 01:00:55;;;;;;;9.10;5.70;;;;;;;12.14;100.00;101175.75;4983083;28;20470;-70
2022/06/07 01:03:22;;;;;;;9.30;5.50;;;;;;;11.87;100.00;101134.50;4979965;28;20437;-70
2022/06/07 01:05:49;;;;;;;8.83;5.40;;;;;;;12.27;100.00;101173.13;4974463;28;20449;-70
2022/06/07 01:10:59;;;;;;;11.53;6.10;;;;;;;12.01;100.00;101130.81;4975081;28;20954;-69
2022/06/07 01:13:28;;;;;;;12.33;6.27;;;;;;;12.18;100.00;101155.50;4978164;28;20481;-70
2022/06/07 01:16:06;;;;;;;4.40;4.00;;;;;;;12.16;100.00;101142.25;4977268;28;20289;-69
2022/06/07 01:18:31;;;;;;;8.50;6.40;;;;;;;12.18;100.00;101159.03;4980070;28;20864;-69
2022/06/07 01:21:11;;;;;;;9.37;6.47;;;;;;;12.26;100.00;101155.31;4973733;28;20450;-69
2022/06/07 01:23:37;;;;;;;8.73;5.17;;;;;;;12.30;100.00;101153.06;4974882;28;20190;-69
2022/06/07 01:26:02;;;;;;;13.20;5.87;;;;;;;12.02;100.00;101127.09;4974743;28;21397;-69
2022/06/07 01:28:28;;;;;;;8.93;6.57;;;;;;;12.12;100.00;101145.53;4977285;28;20720;-69
2022/06/07 01:30:57;;;;;;;11.73;6.23;;;;;;;12.18;100.00;101144.75;4972681;28;20198;-69
2022/06/07 01:33:22;;;;;;;8.63;6.00;;;;;;;12.18;100.00;101117.88;4974779;28;20245;-70
2022/06/07 01:35:49;;;;;;;9.30;6.00;;;;;;;12.05;100.00;101091.75;4975819;28;20484;-69
2022/06/07 01:38:14;;;;;;;11.33;6.40;;;;;;;12.22;100.00;101132.53;4977575;28;20281;-70
2022/06/07 01:43:24;;;;;;;13.03;6.60;;;;;;;12.00;100.00;101104.94;4975651;28;20437;-70
2022/06/07 01:45:49;;;;;;;9.67;6.80;;;;;;;12.06;100.00;101093.38;4977779;28;20440;-69
2022/06/07 01:48:15;;;;;;;9.93;7.03;;;;;;;12.19;100.00;101111.44;4975286;28;20706;-69
2022/06/07 01:50:40;;;;;;;13.90;7.63;;;;;;;11.97;100.00;101067.72;4974212;28;20752;-69
2022/06/07 01:53:05;;;;;;;10.43;8.87;;;;;;;12.33;100.00;101123.06;4979120;28;20252;-69
2022/06/07 01:55:31;;;;;;;8.13;7.20;;;;;;;12.06;100.00;101082.63;4975373;28;20255;-69
2022/06/07 01:57:56;;;;;;;8.83;7.23;;;;;;;12.28;100.00;101107.53;4990135;28;20190;-69
2022/06/07 02:00:22;;;;;;;15.80;8.80;;;;;;;12.35;100.00;101129.91;4975429;28;20196;-70
2022/06/07 02:02:48;;;;;;;10.97;8.50;;;;;;;12.24;100.00;101122.44;4975420;28;20188;-69
2022/06/07 02:05:15;;;;;;;14.87;8.87;;;;;;;12.34;100.00;101125.53;4978057;28;20236;-70
2022/06/07 02:07:40;;;;;;;11.53;8.57;;;;;;;12.32;100.00;101083.72;4974590;28;20489;-69
2022/06/07 02:10:06;;;;;;;12.50;9.00;;;;;;;12.36;100.00;101118.09;4974850;28;20526;-69
2022/06/07 02:12:32;;;;;;;9.00;8.13;;;;;;;12.37;100.00;101084.78;4975463;28;20272;-69
2022/06/07 02:14:59;;;;;;;11.63;8.93;;;;;;;11.98;100.00;101042.53;4981927;28;20584;-71
2022/06/07 02:17:24;;;;;;;14.93;8.83;;;;;;;12.03;100.00;101042.72;4993294;28;20201;-70
2022/06/07 02:19:50;;;;;;;14.77;9.30;;;;;;;12.05;100.00;101040.66;4986343;28;20959;-70
2022/06/07 02:22:15;;;;;;;11.57;8.17;;;;;;;11.84;100.00;101012.06;4992727;28;20714;-70
2022/06/07 02:24:40;;;;;;;12.23;8.83;;;;;;;12.28;100.00;101095.94;4991242;28;20210;-70
2022/06/07 02:27:11;;;;;;;10.73;9.00;;;;;;;12.11;100.00;101065.91;4993213;28;20239;-70
2022/06/07 02:29:43;;;;;;;11.23;9.20;;;;;;;12.27;100.00;101078.16;4995361;28;20182;-70
2022/06/07 02:32:15;;;;;;;11.87;9.73;;;;;;;12.06;100.00;101041.47;4980436;28;20986;-72
2022/06/07 02:34:45;;;;;;;13.60;9.20;;;;;;;12.32;100.00;101075.66;4979456;28;20504;-70
2022/06/07 02:37:12;;;;;;;11.67;9.17;;;;;;;12.03;100.00;101029.28;4978564;28;20535;-70
2022/06/07 02:39:38;;;;;;;13.47;9.57;;;;;;;12.25;100.00;101059.53;4979912;28;20586;-70
2022/06/07 02:42:06;;;;;;;10.67;8.47;;;;;;;12.51;100.00;101071.34;4976779;28;20488;-69
2022/06/07 02:44:32;;;;;;;12.57;9.50;;;;;;;12.09;100.00;101023.09;4991898;28;20464;-69
2022/06/07 02:46:58;;;;;;;9.47;7.97;;;;;;;12.47;100.00;101076.34;4978963;28;20477;-70
2022/06/07 02:49:23;;;;;;;10.83;7.80;;;;;;;12.07;100.00;101006.34;4977776;28;21027;-70
2022/06/07 02:51:48;;;;;;;10.40;7.60;;;;;;;12.55;100.00;101067.22;4979586;28;20250;-70
2022/06/07 02:54:14;;;;;;;14.80;9.00;;;;;;;12.36;100.00;101029.34;4977649;28;20271;-69
2022/06/07 02:56:39;;;;;;;7.73;6.90;;;;;;;12.42;100.00;101055.41;4977997;28;20197;-70
2022/06/07 02:59:05;;;;;;;13.80;7.80;;;;;;;12.45;100.00;101043.41;4980371;28;20235;-70
2022/06/07 03:01:31;;;;;;;10.20;7.93;;;;;;;12.09;100.00;100998.91;4977054;28;20185;-70
2022/06/07 03:04:00;;;;;;;12.27;8.17;;;;;;;11.92;100.00;100974.28;4976408;28;20717;-70
2022/06/07 03:06:25;;;;;;;8.33;7.33;;;;;;;12.31;100.00;101030.97;4981839;28;20456;-70
2022/06/07 03:08:51;;;;;;;12.07;7.20;;;;;;;12.49;100.00;101052.72;4980333;28;20502;-69
2022/06/07 03:11:16;;;;;;;15.53;8.07;;;;;;;12.34;100.00;101009.88;4977107;28;20198;-70
2022/06/07 03:13:42;;;;;;;12.60;7.60;;;;;;;12.57;100.00;101051.69;4976685;28;20225;-69
2022/06/07 03:16:07;;;;;;;13.07;7.53;;;;;;;12.21;100.00;100999.94;4977180;28;20193;-69
2022/06/07 03:18:33;;;;;;;10.83;7.43;;;;;;;12.26;100.00;100996.63;4977084;28;20189;-69
2022/06/07 03:20:58;;;;;;;9.23;6.80;;;;;;;12.57;100.00;101031.00;4973658;28;20271;-69
2022/06/07 03:23:24;;;;;;;10.67;7.57;;;;;;;12.24;100.00;101004.09;4977603;28;20322;-70
2022/06/07 03:25:50;;;;;;;11.80;7.60;;;;;;;12.21;100.00;100978.44;4977451;28;20329;-69
2022/06/07 03:28:15;;;;;;;9.30;7.47;;;;;;;12.29;100.00;100993.53;4977897;28;27606;-69
2022/06/07 03:30:41;;;;;;;14.07;7.67;;;;;;;12.56;100.00;101028.53;4977850;28;20197;-70
2022/06/07 03:33:07;;;;;;;10.33;7.50;;;;;;;12.50;100.00;100986.28;4975320;28;20248;-69
2022/06/07 03:35:33;;;;;;;8.97;7.47;;;;;;;12.62;100.00;101015.06;4978420;28;20209;-70
2022/06/07 03:37:59;;;;;;;13.30;7.50;;;;;;;12.48;100.00;100994.56;4976564;28;20499;-70
2022/06/07 03:43:08;;;;;;;9.10;6.70;;;;;;;12.61;100.00;101021.47;4977965;28;20221;-69
2022/06/07 03:45:34;;;;;;;9.87;7.10;;;;;;;12.53;100.00;100988.59;4974416;28;20963;-70
2022/06/07 03:48:00;;;;;;;11.77;9.13;;;;;;;12.19;100.00;100972.44;4975615;28;20190;-70
2022/06/07 03:50:25;;;;;;;13.50;9.10;;;;;;;12.19;100.00;100974.28;4977272;28;20913;-70
2022/06/07 03:52:51;;;;;;;14.07;8.80;;;;;;;12.39;100.00;101039.69;4974137;28;20210;-70
2022/06/07 03:55:17;;;;;;;9.93;8.43;;;;;;;12.11;100.00;101007.56;4976330;28;21192;-70
2022/06/07 03:57:42;;;;;;;17.30;10.57;;;;;;;11.96;100.00;101002.38;4979212;28;20209;-69
2022/06/07 04:00:08;;;;;;;13.13;9.43;;;;;;;12.06;100.00;100999.28;4974415;28;20224;-69
2022/06/07 04:02:35;;;;;;;14.03;9.63;;;;;;;12.00;100.00;100978.59;4976466;28;20375;-70
2022/06/07 04:05:00;;;;;;;12.20;9.43;;;;;;;12.08;100.00;101009.84;4978117;28;20467;-69
2022/06/07 04:10:12;;;;;;;9.60;7.83;;;;;;;12.29;100.00;101054.56;4974954;28;20283;-70
2022/06/07 04:12:37;;;;;;;18.47;10.60;;;;;;;12.10;100.00;101046.25;4981869;28;20792;-69
2022/06/07 04:15:03;;;;;;;12.97;10.20;;;;;;;11.87;100.00;101019.75;4977446;28;20463;-69
2022/06/07 04:17:28;;;;;;;15.10;10.30;;;;;;;12.25;100.00;101067.59;4978108;28;20198;-69
2022/06/07 04:19:54;;;;;;;15.97;11.67;;;;;;;12.11;100.00;101052.47;4985621;28;20201;-69
2022/06/07 04:22:19;;;;;;;12.50;10.60;;;;;;;11.90;100.00;101024.72;4989718;28;20196;-69
2022/06/07 04:24:44;;;;;;;11.00;9.83;;;;;;;11.71;100.00;100988.63;4977017;28;20610;-70
2022/06/07 04:27:10;;;;;;;12.13;9.10;;;;;;;11.95;100.00;100998.06;4975636;28;20200;-69
2022/06/07 04:29:35;;;;;;;7.27;6.20;;;;;;;12.19;100.00;101028.91;4973263;28;20206;-69
2022/06/07 04:32:01;;;;;;;9.73;7.47;;;;;;;12.14;100.00;101020.59;4996086;23;20238;-80
2022/06/07 04:34:27;;;;;;;11.50;7.80;;;;;;;12.32;100.00;101060.34;5055804;28;20234;-80
2022/06/07 04:36:53;;;;;;;12.23;9.27;;;;;;;11.61;100.00;100961.34;5057128;28;20562;-81
2022/06/07 04:39:18;;;;;;;11.40;8.10;;;;;;;12.33;100.00;101061.19;5069513;28;20446;-80
2022/06/07 04:41:44;;;;;;;13.83;8.63;;;;;;;11.18;100.00;100893.66;5056835;28;20675;-78
2022/06/07 04:44:09;;;;;;;8.07;7.13;;;;;;;12.31;100.00;101053.31;5057238;28;20195;-80
2022/06/07 04:46:34;;;;;;;10.83;8.60;;;;;;;11.89;100.00;101000.69;5062109;28;20180;-78
2022/06/07 04:49:00;;;;;;;8.33;7.43;;;;;;;12.06;100.00;101071.06;5056807;28;20187;-81
2022/06/07 04:51:28;;;;;;;10.37;8.10;;;;;;;11.90;100.00;101048.91;5058140;28;20738;-79
2022/06/07 04:53:55;;;;;;;11.80;9.30;;;;;;;12.16;100.00;101072.34;5060442;28;20266;-88
2022/06/07 04:56:32;;;;;;;11.03;8.60;;;;;;;11.94;100.00;101087.78;5050660;28;20576;-87
2022/06/07 04:58:59;;;;;;;10.50;7.03;;;;;;;11.80;100.00;101020.72;5057796;28;20494;-80
2022/06/07 05:01:31;;;;;;;16.00;8.63;;;;;;;11.54;100.00;100996.25;5056426;28;20445;-82
2022/06/07 05:03:56;;;;;;;12.50;7.57;;;;;;;11.33;100.00;100942.66;5050802;28;21026;-77
2022/06/07 05:06:29;;;;;;;12.60;8.07;;;;;;;12.15;100.00;101081.44;5057701;28;20429;-77
2022/06/07 05:08:58;;;;;;;13.27;8.23;;;;;;;12.14;100.00;101078.94;5074266;28;20217;-79
2022/06/07 05:11:25;;;;;;;8.30;7.03;;;;;;;11.08;100.00;100908.28;5059257;28;20477;-77
2022/06/07 05:13:56;;;;;;;11.03;7.17;;;;;;;11.93;100.00;101091.50;5054907;28;20527;-78
2022/06/07 05:16:22;;;;;;;8.60;6.50;;;;;;;11.96;100.00;101083.03;5055461;28;20456;-78
2022/06/07 05:18:49;;;;;;;10.70;7.70;;;;;;;11.08;100.00;100929.75;5055004;28;20437;-80
2022/06/07 05:21:15;;;;;;;10.30;7.33;;;;;;;11.07;100.00;100928.09;5060292;28;20437;-78
2022/06/07 05:23:40;;;;;;;7.00;6.03;;;;;;;11.93;100.00;101078.06;5054253;28;20532;-77
2022/06/07 05:26:14;;;;;;;7.10;6.27;;;;;;;11.39;100.00;100971.38;5060602;28;20271;-77
2022/06/07 05:28:42;;;;;;;11.80;6.63;;;;;;;11.31;100.00;100942.00;5058742;28;20182;-77
2022/06/07 05:31:08;;;;;;;10.57;6.00;;;;;;;12.07;100.00;101065.50;5055685;28;20471;-79
2022/06/07 05:33:34;;;;;;;7.10;5.90;;;;;;;11.25;100.00;100961.63;5068347;28;20561;-80
2022/06/07 05:35:59;;;;;;;8.20;5.60;;;;;;;11.17;100.00;100961.81;5054158;28;20958;-78
2022/06/07 05:38:25;;;;;;;5.63;4.50;;;;;;;12.08;100.00;101064.44;5058061;28;20214;-77
2022/06/07 05:40:52;;;;;;;9.43;4.60;;;;;;;12.10;100.00;101061.56;5058101;28;20464;-79
2022/06/07 05:43:17;;;;;;;6.07;4.43;;;;;;;11.78;100.00;100983.31;5055025;28;20211;-79
2022/06/07 05:45:48;;;;;;;4.57;4.10;;;;;;;11.99;100.00;101060.28;5053606;28;20819;-79
2022/06/07 05:48:13;;;;;;;8.20;4.40;;;;;;;11.73;100.00;101020.69;5056796;28;20265;-79
2022/06/07 05:50:39;;;;;;;9.70;4.73;;;;;;;11.61;100.00;101036.56;5058072;28;20571;-78
2022/06/07 05:53:04;;;;;;;8.53;4.07;;;;;;;9.98;100.00;100766.13;5061525;28;20221;-79
2022/06/07 05:55:29;;;;;;;6.60;4.57;;;;;;;11.62;100.00;100983.66;5063147;28;20226;-80
2022/06/07 05:57:55;;;;;;;6.13;4.93;;;;;;;10.90;100.00;100875.78;5059127;28;20190;-79
2022/06/07 06:00:21;;;;;;;7.70;5.40;;;;;;;11.46;100.00;100968.75;5056034;28;20675;-79
2022/06/07 06:02:47;;;;;;;7.73;4.90;;;;;;;11.96;100.00;101015.81;5056301;28;20260;-76
2022/06/07 06:05:13;;;;;;;6.87;5.33;;;;;;;11.30;100.00;100925.09;5055171;28;20799;-81
2022/06/07 06:10:19;;;;;;;7.70;5.63;;;;;;;12.05;100.00;101047.91;5057385;28;20498;-82
2022/06/07 06:10:24;;;;;;;7.00;5.73;;;;;;;11.22;100.00;100898.41;5062473;28;20432;-78
2022/06/07 06:12:50;;;;;;;11.33;6.17;;;;;;;11.77;100.00;100997.75;5056358;28;20473;-78
2022/06/07 06:15:15;;;;;;;7.97;6.33;;;;;;;11.06;100.00;100909.50;5058553;28;20222;-79
2022/06/07 06:17:41;;;;;;;8.27;5.93;;;;;;;12.28;100.00;101091.38;5061010;28;20651;-80
2022/06/07 06:20:09;;;;;;;8.50;6.03;;;;;;;10.36;100.00;100834.47;5057975;28;20269;-78
2022/06/07 06:22:35;;;;;;;10.30;6.17;;;;;;;11.68;100.00;101020.47;5058213;28;20211;-78
2022/06/07 06:25:01;;;;;;;8.30;6.57;;;;;;;12.11;100.00;101080.19;5062998;28;20486;-78
2022/06/07 06:27:28;;;;;;;6.30;5.70;;;;;;;12.22;100.00;101094.91;5058730;28;20675;-78
2022/06/07 06:29:53;;;;;;;8.00;5.83;;;;;;;11.44;100.00;100989.59;5058164;28;20436;-77
2022/06/07 06:32:19;;;;;;;8.10;6.43;;;;;;;11.95;100.00;101110.13;5057761;28;20481;-77
2022/06/07 06:34:44;;;;;;;7.70;5.73;;;;;;;10.68;100.00;100882.31;5060609;28;20228;-80
2022/06/07 06:37:10;;;;;;;10.20;6.23;;;;;;;11.45;100.00;101000.13;5062913;28;20552;-81
2022/06/07 06:39:35;;;;;;;11.47;7.07;;;;;;;12.04;100.00;101100.84;5061993;28;20179;-80
2022/06/07 06:42:01;;;;;;;8.70;5.30;;;;;;;12.13;100.00;101104.19;5062325;28;20229;-78
2022/06/07 06:44:26;;;;;;;8.20;6.20;;;;;;;12.18;100.00;101105.25;5064784;28;20527;-78
2022/06/07 06:46:53;;;;;;;10.60;6.13;;;;;;;11.53;100.00;101040.25;5063550;28;20190;-87
2022/06/07 06:49:18;;;;;;;7.40;4.90;;;;;;;11.16;100.00;101005.78;5061387;28;20198;-81
2022/06/07 06:51:45;;;;;;;7.47;5.33;;;;;;;12.18;100.00;101137.50;5061895;28;20437;-81
2022/06/07 06:54:12;;;;;;;5.23;4.73;;;;;;;12.15;100.00;101123.63;5062448;28;20421;-84
2022/06/07 06:56:38;;;;;;;7.00;4.60;;;;;;;11.02;100.00;100944.00;5063933;28;20430;-80
2022/06/07 06:59:04;;;;;;;5.60;4.10;;;;;;;12.04;100.00;101140.34;5063406;28;20425;-81
2022/06/07 07:01:32;;;;;;;6.10;4.20;;;;;;;11.44;100.00;101089.81;5063937;28;20479;-81
2022/06/07 07:04:00;;;;;;;6.10;3.93;;;;;;;10.29;100.00;100887.19;5062413;28;20205;-81
2022/06/07 07:06:27;;;;;;;5.67;3.77;;;;;;;11.99;100.00;101149.84;5062991;28;20509;-80
2022/06/07 07:08:54;;;;;;;7.47;3.37;;;;;;;10.64;100.00;100924.75;5060971;28;20948;-81
2022/06/07 07:11:27;;;;;;;8.10;3.90;;;;;;;11.99;100.00;101143.63;5061569;28;20437;-79
2022/06/07 07:13:55;;;;;;;4.20;2.83;;;;;;;10.69;100.00;100954.53;5060800;28;20522;-77
2022/06/07 07:16:23;;;;;;;6.30;2.67;;;;;;;10.79;100.00;100991.72;5062097;28;20487;-81
2022/06/07 07:18:49;;;;;;;4.37;2.03;;;;;;;11.67;100.00;101107.50;5063885;28;20451;-78
2022/06/07 07:21:24;;;;;;;4.07;2.10;;;;;;;11.90;100.00;101151.03;5061336;28;20413;-78
2022/06/07 07:23:50;;;;;;;3.93;1.50;;;;;;;12.03;100.00;101152.94;5059785;28;20202;-77
2022/06/07 07:26:21;;;;;;;3.03;1.53;;;;;;;11.89;100.00;101127.88;5061316;28;20483;-77
2022/06/07 07:28:48;;;;;;;6.10;1.50;;;;;;;11.85;100.00;101148.13;5062247;28;20413;-74
2022/06/07 07:31:18;;;;;;;3.57;1.70;;;;;;;11.94;100.00;101138.03;5058944;28;20428;-78
2022/06/07 07:33:43;;;;;;;3.63;1.43;;;;;;;11.60;100.00;101034.94;5059693;28;21103;-77
2022/06/07 07:36:10;;;;;;;3.37;1.33;;;;;;;12.10;100.00;101129.63;5056691;28;20895;-78
2022/06/07 07:38:35;;;;;;;2.30;1.20;;;;;;;11.00;100.00;100950.56;5059500;28;20207;-79
2022/06/07 07:41:02;;;;;;;2.90;1.30;;;;;;;12.18;100.00;101137.50;5060848;28;20941;-80
2022/06/07 07:43:28;;;;;;;3.20;1.60;;;;;;;11.94;100.00;101073.50;5058561;28;20452;-78
2022/06/07 07:45:55;;;;;;;2.33;1.60;;;;;;;12.17;100.00;101100.88;5057482;28;20436;-78
2022/06/07 07:48:22;;;;;;;2.87;1.50;;;;;;;12.23;100.00;101146.81;5058681;28;20190;-80
2022/06/07 07:50:48;;;;;;;3.37;2.27;;;;;;;12.42;100.00;101146.88;5058671;28;20444;-77
2022/06/07 07:53:14;;;;;;;3.43;2.20;;;;;;;11.96;100.00;101044.56;5060715;28;20473;-76
2022/06/07 07:55:45;;;;;;;2.53;2.33;;;;;;;12.56;100.00;101163.06;5058157;28;20441;-78
2022/06/07 07:58:11;;;;;;;4.07;2.90;;;;;;;12.39;100.00;101158.03;5060904;28;20445;-80
2022/06/07 08:00:41;;;;;;;3.00;2.13;;;;;;;12.36;100.00;101163.00;5060879;28;20463;-78
2022/06/07 08:03:06;;;;;;;3.63;1.80;;;;;;;12.08;100.00;101133.53;5056547;28;20460;-82
2022/06/07 08:05:32;;;;;;;2.93;1.70;;;;;;;11.63;100.00;101039.91;5055042;28;20438;-82
2022/06/07 08:07:57;;;;;;;3.30;1.40;;;;;;;10.38;100.00;100831.56;5058860;28;20694;-78
2022/06/07 08:10:24;;;;;;;3.80;1.50;;;;;;;12.00;100.00;101104.94;5057663;28;20469;-77
2022/06/07 08:12:49;;;;;;;2.73;1.30;;;;;;;12.14;100.00;101103.16;5058218;28;20204;-78
2022/06/07 08:15:15;;;;;;;3.17;1.20;;;;;;;12.26;100.00;101125.72;5058878;28;20948;-77
2022/06/07 08:17:42;;;;;;;4.63;1.67;;;;;;;11.47;100.00;100973.91;5056837;28;20183;-77
2022/06/07 08:20:08;;;;;;;5.30;1.60;;;;;;;12.25;100.00;101145.59;5057815;28;20437;-79
2022/06/07 08:22:34;;;;;;;2.17;1.23;;;;;;;12.08;100.00;101045.63;5053124;28;20489;-79
2022/06/07 08:25:00;;;;;;;4.03;1.40;;;;;;;12.14;100.00;101055.56;5055693;28;20473;-78
2022/06/07 08:27:26;;;;;;;7.77;1.47;;;;;;;11.93;100.00;101018.91;5056346;28;20190;-77
2022/06/07 08:29:51;;;;;;;4.83;1.80;;;;;;;11.51;100.00;100961.75;5058812;28;20438;-77
2022/06/07 08:32:16;;;;;;;2.10;1.50;;;;;;;11.54;100.00;101011.53;5054157;28;20215;-77
2022/06/07 08:37:37;;;;;;;4.03;1.57;;;;;;;11.88;100.00;101063.56;5053779;28;20174;-80
2022/06/07 08:40:20;;;;;;;9.90;2.03;;;;;;;12.17;100.00;101146.59;5073785;28;20528;-78
2022/06/07 08:42:52;;;;;;;7.33;1.40;;;;;;;12.36;100.00;101153.06;5056866;28;20500;-78
2022/06/07 08:45:29;;;;;;;4.57;1.33;;;;;;;12.46;100.00;101168.00;5054041;28;20465;-76
2022/06/07 08:48:01;;;;;;;4.67;1.30;;;;;;;12.77;100.00;101156.66;5059484;28;20433;-76
2022/06/07 08:50:28;;;;;;;5.20;1.30;;;;;;;12.78;100.00;101148.38;5056059;28;20437;-78
2022/06/07 08:52:59;;;;;;;4.90;1.37;;;;;;;12.72;100.00;101143.00;5056573;28;20663;-78
2022/06/07 08:55:42;;;;;;;5.10;1.50;;;;;;;12.96;100.00;101158.56;5044891;28;20498;-77
2022/06/07 08:58:24;;;;;;;7.00;2.20;;;;;;;13.22;100.00;101159.56;5051247;28;20524;-76
2022/06/07 09:00:57;;;;;;;5.03;1.53;;;;;;;13.37;100.00;101159.41;5061249;28;20491;-77
2022/06/07 09:03:44;;;;;;;5.07;1.77;;;;;;;13.52;100.00;101155.41;5056708;28;20454;-75
2022/06/07 09:06:38;;;;;;;4.80;1.33;;;;;;;13.55;100.00;101121.84;5055501;28;20460;-77
2022/06/07 09:09:05;;;;;;;2.63;1.10;;;;;;;13.61;100.00;101144.41;5054537;28;20446;-76
2022/06/07 09:14:49;;;;;;;5.27;1.63;;;;;;;12.87;100.00;101044.88;5059023;28;20758;-77
2022/06/07 09:17:33;;;;;;;5.43;1.50;;;;;;;13.13;100.00;101062.00;5060149;28;20464;-78
2022/06/07 09:20:00;;;;;;;3.03;1.20;;;;;;;13.31;100.00;101105.31;5058754;28;20492;-75
2022/06/07 09:22:37;;;;;;;6.83;1.37;;;;;;;13.52;100.00;101131.16;5045468;28;21518;-77
2022/06/07 09:25:26;;;;;;;5.87;1.20;;;;;;;13.31;100.00;101086.44;5060478;28;20505;-78
2022/06/07 09:27:53;;;;;;;4.00;1.33;;;;;;;12.90;100.00;100997.81;5052018;28;20854;-76
2022/06/07 09:30:29;;;;;;;2.93;1.23;;;;;;;13.06;100.00;101048.53;5058817;28;20526;-76
2022/06/07 09:32:54;;;;;;;6.67;1.73;;;;;;;13.34;100.00;101112.16;5057582;28;20479;-75
2022/06/07 09:35:22;;;;;;;6.50;1.60;;;;;;;13.49;100.00;101122.69;5057152;28;20482;-76
2022/06/07 09:38:07;;;;;;;7.47;1.53;;;;;;;12.92;100.00;101060.38;5055291;28;20348;-77
2022/06/07 09:40:36;;;;;;;5.37;2.33;;;;;;;12.60;100.00;101021.69;5046573;28;20438;-77
2022/06/07 09:43:05;;;;;;;5.77;3.20;;;;;;;13.01;100.00;101110.28;5048356;28;20547;-77
2022/06/07 09:45:38;;;;;;;5.10;1.77;;;;;;;13.00;100.00;101087.09;5056843;28;20437;-76
2022/06/07 09:48:38;;;;;;;4.47;1.67;;;;;;;13.35;100.00;101135.34;5053361;28;20525;-76
2022/06/07 09:51:11;;;;;;;5.83;1.40;;;;;;;13.39;100.00;101136.56;5047710;28;21110;-77
2022/06/07 09:53:44;;;;;;;3.83;1.30;;;;;;;12.58;100.00;101004.91;5054430;28;20476;-79
2022/06/07 09:56:46;;;;;;;3.40;1.10;;;;;;;13.36;100.00;101146.94;5056723;28;20469;-77
2022/06/07 09:59:36;;;;;;;7.87;2.27;;;;;;;13.18;100.00;101164.53;5040252;28;20441;-77
2022/06/07 10:02:26;;;;;;;5.33;1.10;;;;;;;13.27;100.00;101166.00;5049458;28;20424;-76
2022/06/07 10:05:16;;;;;;;5.27;1.40;;;;;;;13.26;100.00;101169.75;5059899;28;20989;-75
2022/06/07 10:08:07;;;;;;;2.90;1.00;;;;;;;13.18;100.00;101178.00;5059925;28;20938;-79
2022/06/07 10:11:01;;;;;;;6.80;1.10;;;;;;;13.05;100.00;101176.16;5059975;28;20485;-76
2022/06/07 10:13:38;;;;;;;1.93;1.40;;;;;;;13.18;100.00;101169.09;5061840;28;20519;-75
2022/06/07 10:16:03;;;;;;;5.13;1.17;;;;;;;13.19;100.00;101168.91;5059115;28;20575;-74
2022/06/07 10:18:54;;;;;;;4.27;1.33;;;;;;;13.17;100.00;101159.38;5060202;28;20441;-75
2022/06/07 10:21:49;;;;;;;3.47;1.17;;;;;;;13.16;100.00;101152.31;5064290;28;20659;-74
2022/06/07 10:24:47;;;;;;;2.70;0.60;;;;;;;13.12;100.00;101141.97;5059592;28;20439;-77
2022/06/07 10:27:37;;;;;;;1.53;0.70;;;;;;;13.25;100.00;101140.28;5027365;28;20444;-76
2022/06/07 10:30:28;;;;;;;3.00;0.93;;;;;;;13.02;100.00;101101.19;5064079;28;20433;-76
2022/06/07 10:33:38;;;;;;;2.97;1.53;;;;;;;13.40;100.00;101121.25;5059162;28;20466;-76
2022/06/07 10:36:18;;;;;;;2.90;1.10;;;;;;;13.42;100.00;101119.97;5060471;28;20458;-77
2022/06/07 10:39:02;;;;;;;6.80;0.80;;;;;;;13.37;100.00;101124.38;5059828;28;20810;-77
2022/06/07 10:41:43;;;;;;;6.73;1.03;;;;;;;12.91;100.00;101014.81;5057277;28;20429;-78
2022/06/07 10:44:24;;;;;;;2.30;0.80;;;;;;;13.17;100.00;101047.09;5062036;28;20448;-76
2022/06/07 10:46:49;;;;;;;1.87;0.60;;;;;;;13.47;100.00;101070.84;5057655;28;20433;-75
2022/06/07 10:49:28;;;;;;;2.87;0.80;;;;;;;13.85;100.00;101118.63;5062218;28;20445;-74
2022/06/07 10:52:21;;;;;;;2.27;0.97;;;;;;;13.91;100.00;101121.28;5060420;28;20174;-74
2022/06/07 10:55:01;;;;;;;3.23;1.03;;;;;;;14.07;100.00;101119.16;5059871;28;20426;-75
2022/06/07 10:57:36;;;;;;;3.13;1.00;;;;;;;14.11;100.00;101121.19;5058304;28;20486;-74
2022/06/07 11:00:17;;;;;;;3.43;0.90;;;;;;;14.29;100.00;101130.44;5062224;28;20436;-76
2022/06/07 11:02:59;;;;;;;2.13;0.77;;;;;;;13.29;100.00;100994.25;5061023;28;20499;-76
2022/06/07 11:11:02;;;;;;;4.80;1.20;;;;;;;13.78;100.00;101102.47;5059410;28;20487;-75
2022/06/07 11:13:49;;;;;;;4.47;1.37;;;;;;;13.56;100.00;101043.44;5060229;28;20464;-76
2022/06/07 11:16:36;;;;;;;5.73;1.63;;;;;;;13.72;100.00;101090.69;5058035;28;20445;-75
2022/06/07 11:19:06;;;;;;;6.60;1.60;;;;;;;13.97;100.00;101108.81;5058730;28;20476;-79
2022/06/07 11:21:47;;;;;;;3.93;1.13;;;;;;;13.26;100.00;101027.00;5058320;28;20449;-75
2022/06/07 11:24:30;;;;;;;2.80;1.20;;;;;;;13.95;100.00;101146.78;5055715;28;20466;-73
2022/06/07 11:26:55;;;;;;;5.23;1.50;;;;;;;13.92;100.00;101149.09;5057528;28;20810;-77
2022/06/07 11:29:32;;;;;;;3.83;1.20;;;;;;;13.02;100.00;101022.28;5059451;28;20469;-78
2022/06/07 11:32:00;;;;;;;4.40;1.53;;;;;;;13.07;100.00;101038.59;5059476;28;20212;-77
2022/06/07 11:34:30;;;;;;;6.17;1.30;;;;;;;13.87;100.00;101152.41;5061164;28;20738;-76
2022/06/07 11:37:08;;;;;;;7.03;1.30;;;;;;;13.72;100.00;101163.47;5062380;28;20580;-77
2022/06/07 11:39:39;;;;;;;7.73;2.00;;;;;;;13.57;100.00;101170.97;5058283;28;20445;-74
2022/06/07 11:42:11;;;;;;;5.53;1.20;;;;;;;13.93;100.00;101165.03;5057233;28;20545;-76
2022/06/07 11:45:03;;;;;;;6.53;1.30;;;;;;;14.16;100.00;101152.94;5061172;28;20419;-75
2022/06/07 11:47:36;;;;;;;4.73;1.47;;;;;;;13.61;100.00;101071.66;5059446;28;20433;-75
2022/06/07 11:50:11;;;;;;;4.07;1.13;;;;;;;13.76;100.00;101045.25;5057015;28;20449;-75